sensor_id;sensor_type;location;lat;lon;timestamp;pressure;altitude;pressure_sealevel;temperature;humidity
59274;BME280;45044;41.572;24.730;2023-05-11T00:01:32;91599.44;;;6.11;100.00
59274;BME280;45044;41.572;24.730;2023-05-11T00:03:59;91598.84;;;6.34;100.00
59274;BME280;45044;41.572;24.730;2023-05-11T00:06:26;91604.56;;;6.24;100.00
59274;BME280;45044;41.572;24.730;2023-05-11T00:08:53;91596.66;;;6.20;100.00
59274;BME280;45044;41.572;24.730;2023-05-11T00:11:20;91608.63;;;6.21;100.00
59274;BME280;45044;41.572;24.730;2023-05-11T00:13:47;91607.44;;;6.19;100.00
59274;BME280;45044;41.572;24.730;2023-05-11T00:16:13;91603.34;;;6.18;100.00
59274;BME280;45044;41.572;24.730;2023-05-11T00:18:40;91606.34;;;6.20;100.00
59274;BME280;45044;41.572;24.730;2023-05-11T00:21:07;91603.25;;;6.14;100.00
59274;BME280;45044;41.572;24.730;2023-05-11T00:23:34;91610.22;;;6.10;100.00
59274;BME280;45044;41.572;24.730;2023-05-11T00:26:01;91602.06;;;6.11;100.00
59274;BME280;45044;41.572;24.730;2023-05-11T00:28:27;91610.38;;;6.01;100.00
59274;BME280;45044;41.572;24.730;2023-05-11T00:30:55;91609.53;;;5.97;100.00
59274;BME280;45044;41.572;24.730;2023-05-11T00:33:23;91609.69;;;6.04;100.00
59274;BME280;45044;41.572;24.730;2023-05-11T00:35:50;91612.03;;;5.77;100.00
59274;BME280;45044;41.572;24.730;2023-05-11T00:38:16;91604.47;;;5.72;100.00
59274;BME280;45044;41.572;24.730;2023-05-11T00:40:43;91594.53;;;5.61;100.00
59274;BME280;45044;41.572;24.730;2023-05-11T00:43:10;91598.56;;;5.75;100.00
59274;BME280;45044;41.572;24.730;2023-05-11T00:45:37;91591.25;;;5.65;100.00
59274;BME280;45044;41.572;24.730;2023-05-11T00:48:05;91595.84;;;5.55;100.00
59274;BME280;45044;41.572;24.730;2023-05-11T00:50:33;91591.56;;;5.47;100.00
59274;BME280;45044;41.572;24.730;2023-05-11T00:53:00;91594.81;;;5.44;100.00
59274;BME280;45044;41.572;24.730;2023-05-11T00:55:27;91590.16;;;5.37;100.00
59274;BME280;45044;41.572;24.730;2023-05-11T00:57:54;91599.69;;;5.45;100.00
59274;BME280;45044;41.572;24.730;2023-05-11T01:00:21;91592.69;;;5.33;100.00
59274;BME280;45044;41.572;24.730;2023-05-11T01:02:48;91582.97;;;5.18;100.00
59274;BME280;45044;41.572;24.730;2023-05-11T01:05:15;91599.59;;;5.42;100.00
59274;BME280;45044;41.572;24.730;2023-05-11T01:07:47;91602.69;;;5.31;100.00
59274;BME280;45044;41.572;24.730;2023-05-11T01:10:25;91598.66;;;5.34;100.00
59274;BME280;45044;41.572;24.730;2023-05-11T01:13:17;91600.78;;;5.44;100.00
59274;BME280;45044;41.572;24.730;2023-05-11T01:15:53;91592.00;;;5.36;100.00
59274;BME280;45044;41.572;24.730;2023-05-11T01:20:53;91601.13;;;5.43;100.00
59274;BME280;45044;41.572;24.730;2023-05-11T01:32:11;91577.91;;;5.09;100.00
59274;BME280;45044;41.572;24.730;2023-05-11T01:34:42;91578.19;;;5.20;100.00
59274;BME280;45044;41.572;24.730;2023-05-11T01:37:12;91571.13;;;5.20;100.00
59274;BME280;45044;41.572;24.730;2023-05-11T01:39:51;91573.19;;;5.27;100.00
59274;BME280;45044;41.572;24.730;2023-05-11T01:42:24;91578.41;;;5.14;100.00
59274;BME280;45044;41.572;24.730;2023-05-11T01:44:53;91572.06;;;5.28;100.00
59274;BME280;45044;41.572;24.730;2023-05-11T01:47:21;91578.56;;;5.34;100.00
59274;BME280;45044;41.572;24.730;2023-05-11T01:49:50;91574.00;;;5.31;100.00
59274;BME280;45044;41.572;24.730;2023-05-11T01:52:19;91581.00;;;5.27;100.00
59274;BME280;45044;41.572;24.730;2023-05-11T01:54:48;91570.47;;;5.23;100.00
59274;BME280;45044;41.572;24.730;2023-05-11T01:57:18;91570.47;;;5.23;100.00
59274;BME280;45044;41.572;24.730;2023-05-11T01:59:45;91568.38;;;5.29;100.00
59274;BME280;45044;41.572;24.730;2023-05-11T02:02:13;91561.13;;;5.22;100.00
59274;BME280;45044;41.572;24.730;2023-05-11T02:04:40;91571.41;;;5.31;100.00
59274;BME280;45044;41.572;24.730;2023-05-11T02:07:09;91557.34;;;5.20;100.00
59274;BME280;45044;41.572;24.730;2023-05-11T02:09:38;91557.63;;;5.31;100.00
59274;BME280;45044;41.572;24.730;2023-05-11T02:12:06;91552.81;;;5.33;100.00
59274;BME280;45044;41.572;24.730;2023-05-11T02:14:34;91555.72;;;5.15;100.00
59274;BME280;45044;41.572;24.730;2023-05-11T02:17:03;91556.09;;;5.30;100.00
59274;BME280;45044;41.572;24.730;2023-05-11T02:19:32;91552.94;;;5.08;100.00
59274;BME280;45044;41.572;24.730;2023-05-11T02:22:06;91553.97;;;5.19;100.00
59274;BME280;45044;41.572;24.730;2023-05-11T02:24:34;91550.84;;;5.13;100.00
59274;BME280;45044;41.572;24.730;2023-05-11T02:27:01;91558.44;;;5.19;100.00
59274;BME280;45044;41.572;24.730;2023-05-11T02:29:28;91549.38;;;5.29;100.00
59274;BME280;45044;41.572;24.730;2023-05-11T02:32:08;91563.81;;;5.26;100.00
59274;BME280;45044;41.572;24.730;2023-05-11T02:34:41;91565.56;;;5.22;100.00
59274;BME280;45044;41.572;24.730;2023-05-11T02:37:11;91563.16;;;5.29;100.00
59274;BME280;45044;41.572;24.730;2023-05-11T02:39:40;91559.84;;;5.45;100.00
59274;BME280;45044;41.572;24.730;2023-05-11T02:42:18;91553.19;;;5.47;100.00
59274;BME280;45044;41.572;24.730;2023-05-11T02:44:59;91557.84;;;5.54;100.00
59274;BME280;45044;41.572;24.730;2023-05-11T02:47:31;91557.31;;;5.48;100.00
59274;BME280;45044;41.572;24.730;2023-05-11T02:50:01;91555.13;;;5.50;100.00
59274;BME280;45044;41.572;24.730;2023-05-11T02:52:30;91556.19;;;5.33;100.00
59274;BME280;45044;41.572;24.730;2023-05-11T02:54:59;91559.34;;;5.55;100.00
59274;BME280;45044;41.572;24.730;2023-05-11T02:57:27;91560.97;;;5.31;100.00
59274;BME280;45044;41.572;24.730;2023-05-11T02:59:54;91557.81;;;5.09;100.00
59274;BME280;45044;41.572;24.730;2023-05-11T03:02:21;91548.38;;;5.05;100.00
59274;BME280;45044;41.572;24.730;2023-05-11T03:04:48;91549.16;;;5.05;100.00
59274;BME280;45044;41.572;24.730;2023-05-11T03:07:15;91550.28;;;4.91;100.00
59274;BME280;45044;41.572;24.730;2023-05-11T03:09:42;91553.84;;;4.71;100.00
59274;BME280;45044;41.572;24.730;2023-05-11T03:12:09;91556.03;;;4.56;100.00
59274;BME280;45044;41.572;24.730;2023-05-11T03:14:37;91546.63;;;4.39;100.00
59274;BME280;45044;41.572;24.730;2023-05-11T03:17:05;91553.00;;;4.29;100.00
59274;BME280;45044;41.572;24.730;2023-05-11T03:19:32;91561.28;;;4.06;100.00
59274;BME280;45044;41.572;24.730;2023-05-11T03:21:59;91549.03;;;4.06;100.00
59274;BME280;45044;41.572;24.730;2023-05-11T03:24:26;91549.81;;;4.07;100.00
59274;BME280;45044;41.572;24.730;2023-05-11T03:26:53;91555.84;;;3.99;100.00
59274;BME280;45044;41.572;24.730;2023-05-11T03:29:24;91559.09;;;3.83;100.00
59274;BME280;45044;41.572;24.730;2023-05-11T03:31:51;91559.31;;;3.78;100.00
59274;BME280;45044;41.572;24.730;2023-05-11T03:34:18;91553.56;;;3.72;100.00
59274;BME280;45044;41.572;24.730;2023-05-11T03:36:47;91561.69;;;3.70;100.00
59274;BME280;45044;41.572;24.730;2023-05-11T03:39:15;91556.50;;;3.70;100.00
59274;BME280;45044;41.572;24.730;2023-05-11T03:41:45;91557.13;;;3.55;100.00
59274;BME280;45044;41.572;24.730;2023-05-11T03:44:16;91562.75;;;3.57;100.00
59274;BME280;45044;41.572;24.730;2023-05-11T03:46:46;91558.91;;;3.42;100.00
59274;BME280;45044;41.572;24.730;2023-05-11T03:49:16;91572.91;;;3.50;100.00
59274;BME280;45044;41.572;24.730;2023-05-11T03:51:44;91563.81;;;3.43;100.00
59274;BME280;45044;41.572;24.730;2023-05-11T03:54:11;91573.56;;;3.46;100.00
59274;BME280;45044;41.572;24.730;2023-05-11T03:56:39;91579.81;;;3.33;100.00
59274;BME280;45044;41.572;24.730;2023-05-11T03:59:07;91575.00;;;3.22;100.00
59274;BME280;45044;41.572;24.730;2023-05-11T04:01:34;91579.69;;;3.29;100.00
59274;BME280;45044;41.572;24.730;2023-05-11T04:04:01;91574.84;;;3.40;100.00
59274;BME280;45044;41.572;24.730;2023-05-11T04:06:28;91580.56;;;3.33;100.00
59274;BME280;45044;41.572;24.730;2023-05-11T04:08:55;91581.47;;;3.38;100.00
59274;BME280;45044;41.572;24.730;2023-05-11T04:11:21;91586.34;;;3.52;100.00
59274;BME280;45044;41.572;24.730;2023-05-11T04:13:48;91578.09;;;3.37;100.00
59274;BME280;45044;41.572;24.730;2023-05-11T04:16:15;91576.63;;;3.61;100.00
59274;BME280;45044;41.572;24.730;2023-05-11T04:18:42;91575.31;;;3.67;100.00
59274;BME280;45044;41.572;24.730;2023-05-11T04:21:09;91579.91;;;3.70;100.00
59274;BME280;45044;41.572;24.730;2023-05-11T04:23:35;91572.31;;;3.65;100.00
59274;BME280;45044;41.572;24.730;2023-05-11T04:26:03;91587.94;;;3.78;100.00
59274;BME280;45044;41.572;24.730;2023-05-11T04:28:30;91592.47;;;3.68;100.00
59274;BME280;45044;41.572;24.730;2023-05-11T04:30:56;91595.06;;;3.68;100.00
59274;BME280;45044;41.572;24.730;2023-05-11T04:33:23;91596.44;;;3.53;100.00
59274;BME280;45044;41.572;24.730;2023-05-11T04:35:51;91601.06;;;3.47;100.00
59274;BME280;45044;41.572;24.730;2023-05-11T04:38:19;91611.78;;;3.46;100.00
59274;BME280;45044;41.572;24.730;2023-05-11T04:40:46;91621.47;;;3.58;100.00
59274;BME280;45044;41.572;24.730;2023-05-11T04:43:13;91622.81;;;3.77;100.00
59274;BME280;45044;41.572;24.730;2023-05-11T04:45:40;91619.50;;;4.14;100.00
59274;BME280;45044;41.572;24.730;2023-05-11T04:48:08;91620.56;;;4.63;100.00
59274;BME280;45044;41.572;24.730;2023-05-11T04:50:35;91619.44;;;6.72;100.00
59274;BME280;45044;41.572;24.730;2023-05-11T04:53:02;91627.69;;;8.94;100.00
59274;BME280;45044;41.572;24.730;2023-05-11T04:55:29;91637.63;;;10.57;100.00
59274;BME280;45044;41.572;24.730;2023-05-11T04:57:55;91646.41;;;10.80;100.00
59274;BME280;45044;41.572;24.730;2023-05-11T05:00:22;91646.69;;;9.80;100.00
59274;BME280;45044;41.572;24.730;2023-05-11T05:02:49;91645.91;;;8.56;100.00
59274;BME280;45044;41.572;24.730;2023-05-11T05:05:19;91656.69;;;7.84;100.00
59274;BME280;45044;41.572;24.730;2023-05-11T05:07:45;91657.88;;;7.27;100.00
59274;BME280;45044;41.572;24.730;2023-05-11T05:10:12;91653.97;;;7.57;100.00
59274;BME280;45044;41.572;24.730;2023-05-11T05:12:39;91640.44;;;7.75;100.00
59274;BME280;45044;41.572;24.730;2023-05-11T05:15:06;91642.63;;;9.17;100.00
59274;BME280;45044;41.572;24.730;2023-05-11T05:17:33;91654.28;;;10.80;100.00
59274;BME280;45044;41.572;24.730;2023-05-11T05:20:00;91647.66;;;11.90;100.00
59274;BME280;45044;41.572;24.730;2023-05-11T05:22:27;91643.59;;;12.29;100.00
59274;BME280;45044;41.572;24.730;2023-05-11T05:24:54;91644.72;;;10.11;100.00
59274;BME280;45044;41.572;24.730;2023-05-11T05:27:20;91651.66;;;9.54;100.00
59274;BME280;45044;41.572;24.730;2023-05-11T05:29:47;91652.59;;;10.53;100.00
59274;BME280;45044;41.572;24.730;2023-05-11T05:32:14;91652.56;;;11.02;100.00
59274;BME280;45044;41.572;24.730;2023-05-11T05:34:40;91657.13;;;12.16;100.00
59274;BME280;45044;41.572;24.730;2023-05-11T05:37:08;91654.53;;;12.64;100.00
59274;BME280;45044;41.572;24.730;2023-05-11T05:39:36;91650.81;;;13.98;100.00
59274;BME280;45044;41.572;24.730;2023-05-11T05:42:02;91658.69;;;12.65;100.00
59274;BME280;45044;41.572;24.730;2023-05-11T05:44:29;91656.38;;;12.08;100.00
59274;BME280;45044;41.572;24.730;2023-05-11T05:46:56;91655.66;;;13.07;100.00
59274;BME280;45044;41.572;24.730;2023-05-11T05:49:23;91664.72;;;14.10;100.00
59274;BME280;45044;41.572;24.730;2023-05-11T05:51:49;91647.94;;;13.67;100.00
59274;BME280;45044;41.572;24.730;2023-05-11T05:54:17;91653.41;;;14.06;100.00
59274;BME280;45044;41.572;24.730;2023-05-11T05:56:44;91644.09;;;14.96;90.50
59274;BME280;45044;41.572;24.730;2023-05-11T05:59:10;91638.56;;;15.22;87.25
59274;BME280;45044;41.572;24.730;2023-05-11T06:01:39;91638.34;;;14.56;84.05
59274;BME280;45044;41.572;24.730;2023-05-11T06:04:11;91648.31;;;13.69;100.00
59274;BME280;45044;41.572;24.730;2023-05-11T06:06:38;91638.63;;;14.69;96.76
59274;BME280;45044;41.572;24.730;2023-05-11T06:09:05;91639.69;;;13.47;100.00
59274;BME280;45044;41.572;24.730;2023-05-11T06:11:32;91647.94;;;13.67;100.00
59274;BME280;45044;41.572;24.730;2023-05-11T06:13:58;91641.41;;;13.94;100.00
59274;BME280;45044;41.572;24.730;2023-05-11T06:16:25;91638.94;;;13.46;100.00
59274;BME280;45044;41.572;24.730;2023-05-11T06:18:54;91640.81;;;14.32;99.13
59274;BME280;45044;41.572;24.730;2023-05-11T06:21:21;91651.38;;;15.27;84.34
59274;BME280;45044;41.572;24.730;2023-05-11T06:23:48;91648.03;;;16.21;71.33
59274;BME280;45044;41.572;24.730;2023-05-11T06:26:15;91645.28;;;17.48;61.30
59274;BME280;45044;41.572;24.730;2023-05-11T06:28:41;91648.66;;;17.69;58.47
59274;BME280;45044;41.572;24.730;2023-05-11T06:31:08;91648.25;;;19.58;53.03
59274;BME280;45044;41.572;24.730;2023-05-11T06:33:35;91641.66;;;18.16;56.57
59274;BME280;45044;41.572;24.730;2023-05-11T06:36:05;91636.28;;;18.36;54.87
59274;BME280;45044;41.572;24.730;2023-05-11T06:38:32;91635.69;;;16.07;69.11
59274;BME280;45044;41.572;24.730;2023-05-11T06:40:59;91635.56;;;16.17;76.21
59274;BME280;45044;41.572;24.730;2023-05-11T06:43:25;91627.66;;;16.66;68.95
59274;BME280;45044;41.572;24.730;2023-05-11T06:45:52;91629.28;;;17.68;65.27
59274;BME280;45044;41.572;24.730;2023-05-11T06:48:19;91628.56;;;17.03;64.06
59274;BME280;45044;41.572;24.730;2023-05-11T06:50:48;91635.28;;;16.63;72.89
59274;BME280;45044;41.572;24.730;2023-05-11T06:53:16;91631.78;;;17.39;66.12
59274;BME280;45044;41.572;24.730;2023-05-11T06:55:43;91631.94;;;17.89;64.92
59274;BME280;45044;41.572;24.730;2023-05-11T06:58:10;91623.38;;;17.81;65.59
59274;BME280;45044;41.572;24.730;2023-05-11T07:00:37;91622.22;;;17.62;60.68
59274;BME280;45044;41.572;24.730;2023-05-11T07:03:04;91627.00;;;17.50;64.33
59274;BME280;45044;41.572;24.730;2023-05-11T07:05:31;91624.16;;;18.18;62.80
59274;BME280;45044;41.572;24.730;2023-05-11T07:07:58;91621.41;;;18.89;60.22
59274;BME280;45044;41.572;24.730;2023-05-11T07:10:25;91611.19;;;18.71;59.43
59274;BME280;45044;41.572;24.730;2023-05-11T07:12:52;91618.84;;;19.74;49.96
59274;BME280;45044;41.572;24.730;2023-05-11T07:15:19;91601.00;;;16.73;57.93
59274;BME280;45044;41.572;24.730;2023-05-11T07:17:46;91609.22;;;17.47;62.36
59274;BME280;45044;41.572;24.730;2023-05-11T07:20:13;91618.69;;;17.28;66.80
59274;BME280;45044;41.572;24.730;2023-05-11T07:22:40;91613.81;;;16.54;67.18
59274;BME280;45044;41.572;24.730;2023-05-11T07:25:07;91610.88;;;17.61;57.64
59274;BME280;45044;41.572;24.730;2023-05-11T07:27:35;91608.41;;;17.50;55.27
59274;BME280;45044;41.572;24.730;2023-05-11T07:30:03;91608.06;;;17.48;54.93
59274;BME280;45044;41.572;24.730;2023-05-11T07:32:29;91607.94;;;17.55;56.92
59274;BME280;45044;41.572;24.730;2023-05-11T07:34:56;91607.28;;;18.25;52.63
59274;BME280;45044;41.572;24.730;2023-05-11T07:37:23;91603.03;;;17.91;53.83
59274;BME280;45044;41.572;24.730;2023-05-11T07:39:50;91596.63;;;18.25;52.47
59274;BME280;45044;41.572;24.730;2023-05-11T07:42:16;91592.41;;;17.91;51.87
59274;BME280;45044;41.572;24.730;2023-05-11T07:44:43;91594.16;;;16.75;57.24
59274;BME280;45044;41.572;24.730;2023-05-11T07:47:10;91594.50;;;17.63;52.20
59274;BME280;45044;41.572;24.730;2023-05-11T07:49:37;91587.44;;;18.10;50.22
59274;BME280;45044;41.572;24.730;2023-05-11T07:52:09;91587.56;;;19.49;45.90
59274;BME280;45044;41.572;24.730;2023-05-11T07:54:36;91591.44;;;19.74;44.93
59274;BME280;45044;41.572;24.730;2023-05-11T07:57:03;91596.25;;;19.66;43.62
59274;BME280;45044;41.572;24.730;2023-05-11T07:59:30;91597.75;;;19.08;44.30
59274;BME280;45044;41.572;24.730;2023-05-11T08:01:58;91598.13;;;20.34;42.03
59274;BME280;45044;41.572;24.730;2023-05-11T08:04:26;91593.06;;;19.42;45.20
59274;BME280;45044;41.572;24.730;2023-05-11T08:06:53;91591.66;;;18.07;46.84
59274;BME280;45044;41.572;24.730;2023-05-11T08:09:21;91585.13;;;17.17;44.97
59274;BME280;45044;41.572;24.730;2023-05-11T08:11:47;91584.19;;;17.04;49.59
59274;BME280;45044;41.572;24.730;2023-05-11T08:14:15;91585.78;;;17.62;47.37
59274;BME280;45044;41.572;24.730;2023-05-11T08:16:42;91584.03;;;17.35;47.97
59274;BME280;45044;41.572;24.730;2023-05-11T08:19:09;91577.97;;;16.90;48.54
59274;BME280;45044;41.572;24.730;2023-05-11T08:21:38;91574.66;;;16.62;46.44
59274;BME280;45044;41.572;24.730;2023-05-11T08:24:05;91574.81;;;16.75;47.46
59274;BME280;45044;41.572;24.730;2023-05-11T08:26:32;91582.81;;;15.68;51.01
59274;BME280;45044;41.572;24.730;2023-05-11T08:28:59;91586.97;;;15.97;46.37
59274;BME280;45044;41.572;24.730;2023-05-11T08:31:26;91580.22;;;15.92;46.87
59274;BME280;45044;41.572;24.730;2023-05-11T08:33:53;91579.66;;;15.77;45.58
59274;BME280;45044;41.572;24.730;2023-05-11T08:36:20;91581.94;;;15.75;47.77
59274;BME280;45044;41.572;24.730;2023-05-11T08:38:47;91577.53;;;15.33;46.34
59274;BME280;45044;41.572;24.730;2023-05-11T08:41:13;91577.72;;;15.50;52.21
59274;BME280;45044;41.572;24.730;2023-05-11T08:43:41;91566.97;;;16.20;54.37
59274;BME280;45044;41.572;24.730;2023-05-11T08:46:10;91571.78;;;15.69;48.09
59274;BME280;45044;41.572;24.730;2023-05-11T08:48:39;91573.47;;;15.56;53.05
59274;BME280;45044;41.572;24.730;2023-05-11T08:51:08;91571.19;;;15.58;54.44
59274;BME280;45044;41.572;24.730;2023-05-11T08:53:34;91559.00;;;15.33;55.91
59274;BME280;45044;41.572;24.730;2023-05-11T08:56:02;91566.13;;;15.36;57.66
59274;BME280;45044;41.572;24.730;2023-05-11T08:58:33;91563.56;;;15.29;55.57
59274;BME280;45044;41.572;24.730;2023-05-11T09:01:02;91559.00;;;15.64;54.53
59274;BME280;45044;41.572;24.730;2023-05-11T09:03:30;91562.28;;;15.72;51.78
59274;BME280;45044;41.572;24.730;2023-05-11T09:06:01;91549.94;;;15.89;56.55
59274;BME280;45044;41.572;24.730;2023-05-11T09:08:33;91562.63;;;15.74;57.63
59274;BME280;45044;41.572;24.730;2023-05-11T09:11:00;91566.16;;;15.67;68.85
59274;BME280;45044;41.572;24.730;2023-05-11T09:13:30;91554.94;;;15.25;61.54
59274;BME280;45044;41.572;24.730;2023-05-11T09:15:57;91560.72;;;15.47;66.48
59274;BME280;45044;41.572;24.730;2023-05-11T09:18:25;91553.81;;;15.85;64.62
59274;BME280;45044;41.572;24.730;2023-05-11T09:20:52;91560.50;;;15.34;61.69
59274;BME280;45044;41.572;24.730;2023-05-11T09:23:25;91564.13;;;15.48;69.15
59274;BME280;45044;41.572;24.730;2023-05-11T09:25:53;91560.94;;;15.88;79.78
59274;BME280;45044;41.572;24.730;2023-05-11T09:28:24;91553.59;;;15.99;68.42
59274;BME280;45044;41.572;24.730;2023-05-11T09:30:52;91555.59;;;15.91;66.07
59274;BME280;45044;41.572;24.730;2023-05-11T09:33:23;91557.03;;;16.00;86.30
59274;BME280;45044;41.572;24.730;2023-05-11T09:35:51;91520.63;;;15.73;67.50
59274;BME280;45044;41.572;24.730;2023-05-11T09:38:19;91543.34;;;16.01;67.28
59274;BME280;45044;41.572;24.730;2023-05-11T09:40:53;91536.69;;;15.89;69.25
59274;BME280;45044;41.572;24.730;2023-05-11T09:43:25;91553.25;;;15.69;69.51
59274;BME280;45044;41.572;24.730;2023-05-11T09:45:54;91536.53;;;15.73;83.96
59274;BME280;45044;41.572;24.730;2023-05-11T09:48:27;91541.28;;;15.57;80.58
59274;BME280;45044;41.572;24.730;2023-05-11T09:51:00;91540.50;;;15.61;78.72
59274;BME280;45044;41.572;24.730;2023-05-11T09:53:37;91546.09;;;15.66;87.43
59274;BME280;45044;41.572;24.730;2023-05-11T09:56:06;91529.72;;;16.03;85.33
59274;BME280;45044;41.572;24.730;2023-05-11T09:58:50;91537.31;;;16.25;77.72
59274;BME280;45044;41.572;24.730;2023-05-11T10:01:27;91535.59;;;16.14;77.77
59274;BME280;45044;41.572;24.730;2023-05-11T10:03:55;91540.06;;;15.93;88.02
59274;BME280;45044;41.572;24.730;2023-05-11T10:06:50;91530.34;;;16.11;87.35
59274;BME280;45044;41.572;24.730;2023-05-11T10:09:22;91526.66;;;16.28;75.79
59274;BME280;45044;41.572;24.730;2023-05-11T10:11:51;91536.19;;;16.26;82.21
59274;BME280;45044;41.572;24.730;2023-05-11T10:14:19;91527.06;;;16.03;65.40
59274;BME280;45044;41.572;24.730;2023-05-11T10:16:47;91523.78;;;15.91;66.79
59274;BME280;45044;41.572;24.730;2023-05-11T10:19:14;91514.84;;;16.09;74.19
59274;BME280;45044;41.572;24.730;2023-05-11T10:21:41;91518.28;;;15.78;67.61
59274;BME280;45044;41.572;24.730;2023-05-11T10:24:09;91515.75;;;15.99;72.04
59274;BME280;45044;41.572;24.730;2023-05-11T10:26:37;91512.44;;;15.91;69.72
59274;BME280;45044;41.572;24.730;2023-05-11T10:29:04;91509.94;;;15.80;74.83
59274;BME280;45044;41.572;24.730;2023-05-11T10:31:31;91508.25;;;16.17;75.16
59274;BME280;45044;41.572;24.730;2023-05-11T10:34:00;91511.81;;;16.79;78.35
59274;BME280;45044;41.572;24.730;2023-05-11T10:36:27;91523.94;;;16.56;70.42
59274;BME280;45044;41.572;24.730;2023-05-11T10:38:54;91516.97;;;16.18;71.55
59274;BME280;45044;41.572;24.730;2023-05-11T10:44:10;91502.72;;;16.56;87.31
59274;BME280;45044;41.572;24.730;2023-05-11T10:52:08;91512.38;;;17.11;65.09
59274;BME280;45044;41.572;24.730;2023-05-11T10:54:48;91510.91;;;16.86;64.23
59274;BME280;45044;41.572;24.730;2023-05-11T10:57:35;91512.25;;;16.74;76.43
59274;BME280;45044;41.572;24.730;2023-05-11T11:02:57;91510.09;;;15.69;72.00
59274;BME280;45044;41.572;24.730;2023-05-11T11:05:34;91514.22;;;15.98;84.36
59274;BME280;45044;41.572;24.730;2023-05-11T11:08:01;91504.78;;;15.97;84.95
59274;BME280;45044;41.572;24.730;2023-05-11T11:10:34;91502.91;;;15.69;88.36
59274;BME280;45044;41.572;24.730;2023-05-11T11:13:07;91506.47;;;15.83;99.69
59274;BME280;45044;41.572;24.730;2023-05-11T11:18:29;91511.59;;;15.11;84.75
59274;BME280;45044;41.572;24.730;2023-05-11T11:20:57;91520.03;;;15.61;91.46
59274;BME280;45044;41.572;24.730;2023-05-11T11:23:43;91511.66;;;15.66;90.56
59274;BME280;45044;41.572;24.730;2023-05-11T11:26:14;91508.44;;;15.79;84.45
59274;BME280;45044;41.572;24.730;2023-05-11T11:31:23;91501.97;;;15.25;100.00
59274;BME280;45044;41.572;24.730;2023-05-11T11:33:51;91505.66;;;15.00;100.00
59274;BME280;45044;41.572;24.730;2023-05-11T11:36:59;91505.06;;;15.19;100.00
59274;BME280;45044;41.572;24.730;2023-05-11T11:42:16;91504.38;;;14.77;97.94
59274;BME280;45044;41.572;24.730;2023-05-11T11:44:44;91511.28;;;14.28;100.00
59274;BME280;45044;41.572;24.730;2023-05-11T11:47:21;91503.72;;;14.65;100.00
59274;BME280;45044;41.572;24.730;2023-05-11T11:49:50;91499.56;;;15.06;100.00
59274;BME280;45044;41.572;24.730;2023-05-11T11:54:57;91496.81;;;14.79;100.00
59274;BME280;45044;41.572;24.730;2023-05-11T12:00:04;91496.22;;;14.60;100.00
59274;BME280;45044;41.572;24.730;2023-05-11T12:02:33;91499.34;;;14.51;100.00
59274;BME280;45044;41.572;24.730;2023-05-11T12:05:17;91501.38;;;14.75;100.00
59274;BME280;45044;41.572;24.730;2023-05-11T12:07:51;91496.13;;;14.71;100.00
59274;BME280;45044;41.572;24.730;2023-05-11T12:10:21;91490.00;;;14.78;100.00
59274;BME280;45044;41.572;24.730;2023-05-11T12:12:50;91488.06;;;14.43;100.00
59274;BME280;45044;41.572;24.730;2023-05-11T12:17:49;91489.03;;;14.22;100.00
59274;BME280;45044;41.572;24.730;2023-05-11T12:20:18;91484.56;;;14.57;100.00
59274;BME280;45044;41.572;24.730;2023-05-11T12:22:45;91482.38;;;14.06;100.00
59274;BME280;45044;41.572;24.730;2023-05-11T12:25:15;91482.28;;;14.56;100.00
59274;BME280;45044;41.572;24.730;2023-05-11T12:27:54;91480.13;;;14.43;100.00
59274;BME280;45044;41.572;24.730;2023-05-11T12:30:27;91469.06;;;14.56;100.00
59274;BME280;45044;41.572;24.730;2023-05-11T12:32:54;91486.06;;;14.16;100.00
59274;BME280;45044;41.572;24.730;2023-05-11T12:35:25;91489.22;;;14.00;100.00
59274;BME280;45044;41.572;24.730;2023-05-11T12:37:52;91481.75;;;13.87;100.00
59274;BME280;45044;41.572;24.730;2023-05-11T12:40:19;91477.88;;;13.99;100.00
59274;BME280;45044;41.572;24.730;2023-05-11T12:42:54;91479.88;;;13.88;100.00
59274;BME280;45044;41.572;24.730;2023-05-11T12:45:22;91469.00;;;13.79;100.00
59274;BME280;45044;41.572;24.730;2023-05-11T12:47:52;91480.25;;;13.90;100.00
59274;BME280;45044;41.572;24.730;2023-05-11T12:50:20;91468.13;;;13.93;100.00
59274;BME280;45044;41.572;24.730;2023-05-11T12:52:47;91478.41;;;13.80;100.00
59274;BME280;45044;41.572;24.730;2023-05-11T12:55:28;91482.63;;;13.73;100.00
59274;BME280;45044;41.572;24.730;2023-05-11T13:00:55;91471.06;;;13.45;100.00
59274;BME280;45044;41.572;24.730;2023-05-11T13:03:23;91476.09;;;13.25;100.00
59274;BME280;45044;41.572;24.730;2023-05-11T13:05:51;91469.72;;;13.15;100.00
59274;BME280;45044;41.572;24.730;2023-05-11T13:08:19;91468.66;;;13.01;100.00
59274;BME280;45044;41.572;24.730;2023-05-11T13:10:46;91466.31;;;13.18;100.00
59274;BME280;45044;41.572;24.730;2023-05-11T13:13:26;91465.94;;;13.16;100.00
59274;BME280;45044;41.572;24.730;2023-05-11T13:15:53;91478.53;;;12.90;100.00
59274;BME280;45044;41.572;24.730;2023-05-11T13:18:20;91476.22;;;12.99;100.00
59274;BME280;45044;41.572;24.730;2023-05-11T13:21:03;91468.41;;;12.77;100.00
59274;BME280;45044;41.572;24.730;2023-05-11T13:23:30;91474.69;;;13.05;100.00
59274;BME280;45044;41.572;24.730;2023-05-11T13:25:57;91472.81;;;12.99;100.00
59274;BME280;45044;41.572;24.730;2023-05-11T13:28:23;91477.03;;;12.78;100.00
59274;BME280;45044;41.572;24.730;2023-05-11T13:30:57;91477.06;;;12.74;100.00
59274;BME280;45044;41.572;24.730;2023-05-11T13:33:26;91487.63;;;12.67;100.00
59274;BME280;45044;41.572;24.730;2023-05-11T13:35:53;91474.50;;;12.49;100.00
59274;BME280;45044;41.572;24.730;2023-05-11T13:38:20;91477.88;;;12.56;100.00